Time;durP1;ratioP1;P1;durP2;ratioP2;P2;SDS_P1;SDS_P2;PMS_P1;PMS_P2;Temp;Humidity;BMP_temperature;BMP_pressure;BME280_temperature;BME280_humidity;BME280_pressure;Samples;Min_cycle;Max_cycle;Signal;HPM_P1;HPM_P2
2024/01/21 00:02:08;;;;;;;;;;;;;;;;;;5016089;28;20242;-24
2024/01/21 00:04:34;;;;;;;;;;;;;;;;;;5016044;28;19925;-25
2024/01/21 00:07:00;;;;;;;;;;;;;;;;;;5016375;28;19916;-22
2024/01/21 00:09:27;;;;;;;;;;;;;;;;;;5016099;28;19913;-24
2024/01/21 00:11:53;;;;;;;;;;;;;;;;;;5016082;28;19940;-25
2024/01/21 00:14:19;;;;;;;;;;;;;;;;;;5016071;28;19910;-26
2024/01/21 00:16:45;;;;;;;;;;;;;;;;;;5016290;28;19937;-28
2024/01/21 00:19:11;;;;;;;;;;;;;;;;;;5015156;28;19957;-24
2024/01/21 00:21:37;;;;;;;;;;;;;;;;;;5014937;28;20337;-26
2024/01/21 00:24:03;;;;;;;;;;;;;;;;;;5014739;28;20074;-27
2024/01/21 00:26:29;;;;;;;;;;;;;;;;;;5015821;28;20206;-27
2024/01/21 00:29:00;;;;;;;;;;;;;;;;;;5015645;28;19929;-26
2024/01/21 00:31:26;;;;;;;;;;;;;;;;;;5015737;28;19914;-29
2024/01/21 00:33:52;;;;;;;;;;;;;;;;;;5015859;28;20399;-27
2024/01/21 00:36:18;;;;;;;;;;;;;;;;;;5015583;28;20363;-26
2024/01/21 00:38:44;;;;;;;;;;;;;;;;;;5015571;28;19917;-26
2024/01/21 00:41:10;;;;;;;;;;;;;;;;;;5015523;28;19910;-23
2024/01/21 00:43:36;;;;;;;;;;;;;;;;;;5015379;28;19913;-27
2024/01/21 00:46:02;;;;;;;;;;;;;;;;;;5015447;28;19913;-26
2024/01/21 00:48:28;;;;;;;;;;;;;;;;;;5015436;28;19952;-24
2024/01/21 00:50:54;;;;;;;;;;;;;;;;;;5015424;28;19964;-26
2024/01/21 00:53:20;;;;;;;;;;;;;;;;;;5015303;28;19909;-25
2024/01/21 00:55:46;;;;;;;;;;;;;;;;;;5015368;28;20008;-23
2024/01/21 00:58:12;;;;;;;;;;;;;;;;;;5015507;28;19909;-25
2024/01/21 01:00:38;;;;;;;;;;;;;;;;;;5015280;28;19921;-25
2024/01/21 01:03:04;;;;;;;;;;;;;;;;;;5015014;28;20309;-24
2024/01/21 01:05:30;;;;;;;;;;;;;;;;;;5015117;28;19912;-24
2024/01/21 01:07:56;;;;;;;;;;;;;;;;;;5015351;28;19910;-29
2024/01/21 01:10:22;;;;;;;;;;;;;;;;;;5015054;28;20275;-28
2024/01/21 01:12:48;;;;;;;;;;;;;;;;;;5015002;28;19920;-30
2024/01/21 01:15:14;;;;;;;;;;;;;;;;;;5015241;28;19916;-26
2024/01/21 01:17:40;;;;;;;;;;;;;;;;;;5015241;28;19920;-26
2024/01/21 01:20:06;;;;;;;;;;;;;;;;;;5014944;28;20348;-30
2024/01/21 01:22:32;;;;;;;;;;;;;;;;;;5014748;28;19967;-27
2024/01/21 01:24:58;;;;;;;;;;;;;;;;;;5014868;28;19914;-29
2024/01/21 01:27:24;;;;;;;;;;;;;;;;;;5015101;28;20256;-25
2024/01/21 01:29:50;;;;;;;;;;;;;;;;;;5014705;28;19909;-25
2024/01/21 01:32:16;;;;;;;;;;;;;;;;;;5014671;28;20011;-27
2024/01/21 01:34:42;;;;;;;;;;;;;;;;;;5014782;28;19910;-25
2024/01/21 01:37:11;;;;;;;;;;;;;;;;;;5015593;28;20018;-28
2024/01/21 01:39:37;;;;;;;;;;;;;;;;;;5014796;28;20016;-25
2024/01/21 01:42:03;;;;;;;;;;;;;;;;;;5014657;28;20068;-24
2024/01/21 01:44:29;;;;;;;;;;;;;;;;;;5014709;28;19917;-25
2024/01/21 01:46:55;;;;;;;;;;;;;;;;;;5014711;28;19905;-26
2024/01/21 01:49:21;;;;;;;;;;;;;;;;;;5014624;28;20256;-27
2024/01/21 01:51:47;;;;;;;;;;;;;;;;;;5014987;28;19917;-31
2024/01/21 01:54:13;;;;;;;;;;;;;;;;;;5014490;28;20375;-27
2024/01/21 01:56:39;;;;;;;;;;;;;;;;;;5014524;28;19948;-23
2024/01/21 01:59:09;;;;;;;;;;;;;;;;;;5014573;28;19910;-26
2024/01/21 02:01:34;;;;;;;;;;;;;;;;;;5015034;28;19996;-29
2024/01/21 02:04:00;;;;;;;;;;;;;;;;;;5014405;28;20016;-28
2024/01/21 02:06:26;;;;;;;;;;;;;;;;;;5015728;28;19936;-23
2024/01/21 02:08:53;;;;;;;;;;;;;;;;;;5014455;28;20238;-27
2024/01/21 02:11:19;;;;;;;;;;;;;;;;;;5014711;28;19921;-27
2024/01/21 02:13:45;;;;;;;;;;;;;;;;;;5014431;28;19910;-24
2024/01/21 02:16:11;;;;;;;;;;;;;;;;;;5014627;28;19906;-27
2024/01/21 02:18:37;;;;;;;;;;;;;;;;;;5014382;28;20014;-25
2024/01/21 02:21:03;;;;;;;;;;;;;;;;;;5013465;28;19917;-26
2024/01/21 02:23:30;;;;;;;;;;;;;;;;;;5014171;28;19913;-24
2024/01/21 02:25:56;;;;;;;;;;;;;;;;;;5014411;28;19932;-25
2024/01/21 02:28:22;;;;;;;;;;;;;;;;;;5014560;28;20012;-24
2024/01/21 02:30:48;;;;;;;;;;;;;;;;;;5014372;28;19921;-23
2024/01/21 02:33:14;;;;;;;;;;;;;;;;;;5014314;28;19909;-26
2024/01/21 02:35:40;;;;;;;;;;;;;;;;;;5014515;28;19909;-27
2024/01/21 02:38:06;;;;;;;;;;;;;;;;;;5014220;28;19909;-26
2024/01/21 02:40:32;;;;;;;;;;;;;;;;;;5014518;28;19910;-25
2024/01/21 02:42:58;;;;;;;;;;;;;;;;;;5015447;28;19928;-26
2024/01/21 02:45:24;;;;;;;;;;;;;;;;;;5017701;28;19941;-25
2024/01/21 02:47:50;;;;;;;;;;;;;;;;;;5016767;28;19914;-32
2024/01/21 02:50:16;;;;;;;;;;;;;;;;;;5016624;28;19941;-24
2024/01/21 02:52:42;;;;;;;;;;;;;;;;;;5017582;28;19909;-30
2024/01/21 02:55:08;;;;;;;;;;;;;;;;;;5017840;28;19913;-23
2024/01/21 02:57:34;;;;;;;;;;;;;;;;;;5017472;28;19939;-23
2024/01/21 03:00:00;;;;;;;;;;;;;;;;;;5017626;28;19920;-30
2024/01/21 03:02:26;;;;;;;;;;;;;;;;;;5016983;28;19920;-26
2024/01/21 03:04:54;;;;;;;;;;;;;;;;;;5015864;28;20372;-25
2024/01/21 03:07:20;;;;;;;;;;;;;;;;;;5017514;28;19909;-23
2024/01/21 03:09:46;;;;;;;;;;;;;;;;;;5017459;28;19910;-26
2024/01/21 03:12:12;;;;;;;;;;;;;;;;;;5017344;28;19920;-27
2024/01/21 03:14:39;;;;;;;;;;;;;;;;;;5017519;28;19921;-23
2024/01/21 03:17:05;;;;;;;;;;;;;;;;;;5017885;28;19920;-24
2024/01/21 03:19:31;;;;;;;;;;;;;;;;;;5017367;28;19980;-23
2024/01/21 03:21:57;;;;;;;;;;;;;;;;;;5016957;28;19909;-27
2024/01/21 03:24:23;;;;;;;;;;;;;;;;;;5017044;28;20000;-25
2024/01/21 03:26:48;;;;;;;;;;;;;;;;;;5016957;28;19910;-30
2024/01/21 03:29:14;;;;;;;;;;;;;;;;;;5016906;28;19909;-21
2024/01/21 03:31:40;;;;;;;;;;;;;;;;;;5017096;28;19917;-25
2024/01/21 03:34:06;;;;;;;;;;;;;;;;;;5016730;28;20418;-24
2024/01/21 03:36:32;;;;;;;;;;;;;;;;;;5016723;28;20252;-27
2024/01/21 03:38:58;;;;;;;;;;;;;;;;;;5016730;28;20252;-24
2024/01/21 03:41:24;;;;;;;;;;;;;;;;;;5015678;28;19909;-26
2024/01/21 03:43:50;;;;;;;;;;;;;;;;;;5016521;28;19921;-31
2024/01/21 03:46:16;;;;;;;;;;;;;;;;;;5016575;28;20179;-24
2024/01/21 03:48:42;;;;;;;;;;;;;;;;;;5016535;28;20375;-24
2024/01/21 03:51:08;;;;;;;;;;;;;;;;;;5016481;28;19995;-27
2024/01/21 03:53:34;;;;;;;;;;;;;;;;;;5016377;28;19920;-26
2024/01/21 03:56:00;;;;;;;;;;;;;;;;;;5016663;28;19963;-26
2024/01/21 03:58:26;;;;;;;;;;;;;;;;;;5016415;28;19917;-27
2024/01/21 04:00:52;;;;;;;;;;;;;;;;;;5016401;28;20374;-25
2024/01/21 04:03:18;;;;;;;;;;;;;;;;;;5015986;28;20329;-27
2024/01/21 04:05:44;;;;;;;;;;;;;;;;;;5016259;28;19905;-23
2024/01/21 04:08:10;;;;;;;;;;;;;;;;;;5016507;28;19910;-24
2024/01/21 04:10:35;;;;;;;;;;;;;;;;;;5016311;28;20087;-28
2024/01/21 04:13:01;;;;;;;;;;;;;;;;;;5016088;28;19910;-24
2024/01/21 04:15:27;;;;;;;;;;;;;;;;;;5015987;28;20324;-26
2024/01/21 04:17:53;;;;;;;;;;;;;;;;;;5016252;28;20352;-23
2024/01/21 04:20:19;;;;;;;;;;;;;;;;;;5015871;28;19916;-27
2024/01/21 04:22:45;;;;;;;;;;;;;;;;;;5015988;28;19920;-25
2024/01/21 04:25:11;;;;;;;;;;;;;;;;;;5015758;28;19916;-26
2024/01/21 04:27:37;;;;;;;;;;;;;;;;;;5015909;28;19914;-27
2024/01/21 04:30:03;;;;;;;;;;;;;;;;;;5015702;28;19914;-23
2024/01/21 04:32:29;;;;;;;;;;;;;;;;;;5015629;28;19996;-27
2024/01/21 04:34:55;;;;;;;;;;;;;;;;;;5015890;28;20010;-30
2024/01/21 04:37:21;;;;;;;;;;;;;;;;;;5015696;28;19910;-24
2024/01/21 04:39:47;;;;;;;;;;;;;;;;;;5015861;28;19945;-27
2024/01/21 04:42:13;;;;;;;;;;;;;;;;;;5015604;28;20261;-26
2024/01/21 04:44:39;;;;;;;;;;;;;;;;;;5015567;28;19909;-25
2024/01/21 04:47:05;;;;;;;;;;;;;;;;;;5015581;28;19909;-27
2024/01/21 04:49:31;;;;;;;;;;;;;;;;;;5015448;28;19910;-24
2024/01/21 04:51:57;;;;;;;;;;;;;;;;;;5015568;28;19967;-25
2024/01/21 04:54:23;;;;;;;;;;;;;;;;;;5014338;28;19910;-23
2024/01/21 04:56:49;;;;;;;;;;;;;;;;;;5015324;28;20218;-24
2024/01/21 04:59:15;;;;;;;;;;;;;;;;;;5015330;28;19909;-23
2024/01/21 05:01:42;;;;;;;;;;;;;;;;;;5015530;28;19909;-24
2024/01/21 05:04:08;;;;;;;;;;;;;;;;;;5015179;28;20016;-28
2024/01/21 05:06:34;;;;;;;;;;;;;;;;;;5014689;28;19909;-30
2024/01/21 05:09:00;;;;;;;;;;;;;;;;;;5015090;28;19996;-25
2024/01/21 05:11:26;;;;;;;;;;;;;;;;;;5014128;28;19919;-24
2024/01/21 05:13:52;;;;;;;;;;;;;;;;;;5015082;28;19910;-23
2024/01/21 05:16:18;;;;;;;;;;;;;;;;;;5015123;28;19961;-23
2024/01/21 05:18:44;;;;;;;;;;;;;;;;;;5014957;28;19924;-24
2024/01/21 05:21:10;;;;;;;;;;;;;;;;;;5015230;28;20304;-25
2024/01/21 05:23:36;;;;;;;;;;;;;;;;;;5014803;28;20387;-26
2024/01/21 05:26:02;;;;;;;;;;;;;;;;;;5014922;28;19918;-26
2024/01/21 05:28:28;;;;;;;;;;;;;;;;;;5013855;28;19914;-26
2024/01/21 05:30:54;;;;;;;;;;;;;;;;;;5014895;28;20303;-32
2024/01/21 05:33:20;;;;;;;;;;;;;;;;;;5014993;28;20299;-26
2024/01/21 05:35:46;;;;;;;;;;;;;;;;;;5015072;28;20241;-27
2024/01/21 05:38:12;;;;;;;;;;;;;;;;;;5014765;28;20352;-24
2024/01/21 05:40:38;;;;;;;;;;;;;;;;;;5014773;28;19940;-25
2024/01/21 05:43:04;;;;;;;;;;;;;;;;;;5014873;28;19913;-25
2024/01/21 05:45:30;;;;;;;;;;;;;;;;;;5014963;28;19924;-23
2024/01/21 05:47:56;;;;;;;;;;;;;;;;;;5014736;28;19909;-27
2024/01/21 05:50:22;;;;;;;;;;;;;;;;;;5013700;28;19977;-24
2024/01/21 05:52:48;;;;;;;;;;;;;;;;;;5014634;28;19979;-25
2024/01/21 05:55:14;;;;;;;;;;;;;;;;;;5014906;28;19968;-30
2024/01/21 05:57:40;;;;;;;;;;;;;;;;;;5014655;28;19910;-25
2024/01/21 06:00:06;;;;;;;;;;;;;;;;;;5015349;28;19910;-24
2024/01/21 06:02:32;;;;;;;;;;;;;;;;;;5014218;28;19924;-27
2024/01/21 06:04:58;;;;;;;;;;;;;;;;;;5014859;28;20252;-23
2024/01/21 06:07:24;;;;;;;;;;;;;;;;;;5013573;28;19909;-27
2024/01/21 06:09:50;;;;;;;;;;;;;;;;;;5014757;28;20364;-24
2024/01/21 06:12:15;;;;;;;;;;;;;;;;;;5014298;28;19948;-24
2024/01/21 06:14:41;;;;;;;;;;;;;;;;;;5014705;28;19967;-31
2024/01/21 06:17:07;;;;;;;;;;;;;;;;;;5014764;28;19921;-23
2024/01/21 06:19:33;;;;;;;;;;;;;;;;;;5018271;28;19936;-29
2024/01/21 06:21:59;;;;;;;;;;;;;;;;;;5018077;28;19913;-26
2024/01/21 06:24:25;;;;;;;;;;;;;;;;;;5018138;28;20054;-29
2024/01/21 06:26:51;;;;;;;;;;;;;;;;;;5018121;28;19920;-27
2024/01/21 06:29:17;;;;;;;;;;;;;;;;;;5018085;28;19914;-23
2024/01/21 06:31:43;;;;;;;;;;;;;;;;;;5018269;28;19910;-26
2024/01/21 06:34:09;;;;;;;;;;;;;;;;;;5017953;28;20004;-23
2024/01/21 06:36:35;;;;;;;;;;;;;;;;;;5017930;28;19932;-27
2024/01/21 06:39:01;;;;;;;;;;;;;;;;;;5018463;28;19909;-28
2024/01/21 06:41:27;;;;;;;;;;;;;;;;;;5017799;28;19948;-24
2024/01/21 06:43:53;;;;;;;;;;;;;;;;;;5017791;28;19913;-25
2024/01/21 06:46:19;;;;;;;;;;;;;;;;;;5018034;28;19910;-26
2024/01/21 06:48:45;;;;;;;;;;;;;;;;;;5017967;28;20332;-27
2024/01/21 06:51:20;;;;;;;;;;;;;;;;;;5017681;28;20264;-24
2024/01/21 06:53:46;;;;;;;;;;;;;;;;;;5017511;28;19910;-26
2024/01/21 06:56:11;;;;;;;;;;;;;;;;;;5017498;28;19920;-24
2024/01/21 06:58:37;;;;;;;;;;;;;;;;;;5018150;28;19909;-26
2024/01/21 07:01:03;;;;;;;;;;;;;;;;;;5018195;28;19910;-26
2024/01/21 07:03:29;;;;;;;;;;;;;;;;;;5017117;28;19928;-26
2024/01/21 07:05:55;;;;;;;;;;;;;;;;;;5017501;28;19909;-25
2024/01/21 07:08:21;;;;;;;;;;;;;;;;;;5017613;28;19916;-26
2024/01/21 07:10:47;;;;;;;;;;;;;;;;;;5017315;28;19909;-23
2024/01/21 07:13:13;;;;;;;;;;;;;;;;;;5017240;28;20005;-25
2024/01/21 07:15:39;;;;;;;;;;;;;;;;;;5017461;28;19910;-23
2024/01/21 07:18:07;;;;;;;;;;;;;;;;;;5017400;28;20265;-26
2024/01/21 07:20:32;;;;;;;;;;;;;;;;;;5017128;28;19916;-26
2024/01/21 07:22:58;;;;;;;;;;;;;;;;;;5015957;28;20023;-27
2024/01/21 07:25:24;;;;;;;;;;;;;;;;;;5017402;28;19916;-24
2024/01/21 07:27:50;;;;;;;;;;;;;;;;;;5015749;28;19909;-24
2024/01/21 07:30:17;;;;;;;;;;;;;;;;;;5016802;28;19910;-27
2024/01/21 07:32:43;;;;;;;;;;;;;;;;;;5017076;28;20244;-26
2024/01/21 07:35:09;;;;;;;;;;;;;;;;;;5016771;28;19916;-27
2024/01/21 07:37:35;;;;;;;;;;;;;;;;;;5015858;28;19917;-25
2024/01/21 07:40:01;;;;;;;;;;;;;;;;;;5016783;28;19909;-29
2024/01/21 07:42:27;;;;;;;;;;;;;;;;;;5017279;28;20359;-26
2024/01/21 07:44:53;;;;;;;;;;;;;;;;;;5016691;28;19909;-28
2024/01/21 07:47:19;;;;;;;;;;;;;;;;;;5016828;28;19944;-30
2024/01/21 07:49:46;;;;;;;;;;;;;;;;;;5016587;28;19916;-27
2024/01/21 07:52:12;;;;;;;;;;;;;;;;;;5015469;28;19909;-27
2024/01/21 07:54:38;;;;;;;;;;;;;;;;;;5016748;28;19967;-24
2024/01/21 07:57:05;;;;;;;;;;;;;;;;;;5016518;28;19914;-26
2024/01/21 07:59:31;;;;;;;;;;;;;;;;;;5016432;28;19910;-31
2024/01/21 08:01:57;;;;;;;;;;;;;;;;;;5016317;28;20360;-30
2024/01/21 08:04:22;;;;;;;;;;;;;;;;;;5016157;28;20349;-24
2024/01/21 08:06:49;;;;;;;;;;;;;;;;;;5016248;28;19937;-24
2024/01/21 08:09:15;;;;;;;;;;;;;;;;;;5016194;28;19937;-27
2024/01/21 08:11:41;;;;;;;;;;;;;;;;;;5016171;28;20358;-27
2024/01/21 08:14:07;;;;;;;;;;;;;;;;;;5016050;28;19909;-27
2024/01/21 08:16:33;;;;;;;;;;;;;;;;;;5016339;28;20360;-28
2024/01/21 08:18:59;;;;;;;;;;;;;;;;;;5016036;28;19972;-24
2024/01/21 08:21:25;;;;;;;;;;;;;;;;;;5016028;28;19906;-28
2024/01/21 08:23:51;;;;;;;;;;;;;;;;;;5015809;28;19913;-30
2024/01/21 08:26:17;;;;;;;;;;;;;;;;;;5016190;28;19913;-23
2024/01/21 08:28:43;;;;;;;;;;;;;;;;;;5015863;28;19909;-25
2024/01/21 08:31:09;;;;;;;;;;;;;;;;;;5015966;28;19952;-27
2024/01/21 08:33:36;;;;;;;;;;;;;;;;;;5015737;28;19920;-25
2024/01/21 08:36:02;;;;;;;;;;;;;;;;;;5016060;28;19909;-26
2024/01/21 08:38:28;;;;;;;;;;;;;;;;;;5015977;28;19913;-29
2024/01/21 08:40:54;;;;;;;;;;;;;;;;;;5015186;28;19985;-32
2024/01/21 08:43:20;;;;;;;;;;;;;;;;;;5015481;28;19914;-27
2024/01/21 08:45:46;;;;;;;;;;;;;;;;;;5015537;28;19910;-28
2024/01/21 08:48:12;;;;;;;;;;;;;;;;;;5015753;28;19921;-31
2024/01/21 08:50:39;;;;;;;;;;;;;;;;;;5015470;28;20218;-24
2024/01/21 08:53:05;;;;;;;;;;;;;;;;;;5015389;28;19909;-30
2024/01/21 08:55:31;;;;;;;;;;;;;;;;;;5015349;28;20245;-32
2024/01/21 08:57:56;;;;;;;;;;;;;;;;;;5015384;28;20260;-30
2024/01/21 09:00:22;;;;;;;;;;;;;;;;;;5015490;28;19910;-30
2024/01/21 09:02:48;;;;;;;;;;;;;;;;;;5015193;28;19929;-26
2024/01/21 09:05:14;;;;;;;;;;;;;;;;;;5015603;28;19909;-26
2024/01/21 09:07:40;;;;;;;;;;;;;;;;;;5015230;28;19910;-26
2024/01/21 09:10:08;;;;;;;;;;;;;;;;;;5015464;28;20012;-30
2024/01/21 09:12:34;;;;;;;;;;;;;;;;;;5015036;28;19910;-27
2024/01/21 09:15:00;;;;;;;;;;;;;;;;;;5015105;28;19910;-30
2024/01/21 09:17:26;;;;;;;;;;;;;;;;;;5015050;28;19909;-26
2024/01/21 09:19:52;;;;;;;;;;;;;;;;;;5015068;28;19909;-27
2024/01/21 09:22:18;;;;;;;;;;;;;;;;;;5015061;28;20000;-24
2024/01/21 09:24:44;;;;;;;;;;;;;;;;;;5013942;28;19909;-27
2024/01/21 09:27:10;;;;;;;;;;;;;;;;;;5013879;28;19929;-26
2024/01/21 09:29:36;;;;;;;;;;;;;;;;;;5014968;28;19916;-25
2024/01/21 09:32:02;;;;;;;;;;;;;;;;;;5014807;28;19944;-27
2024/01/21 09:34:28;;;;;;;;;;;;;;;;;;5014893;28;19968;-24
2024/01/21 09:36:54;;;;;;;;;;;;;;;;;;5015188;28;19910;-23
2024/01/21 09:39:20;;;;;;;;;;;;;;;;;;5015035;28;19996;-27
2024/01/21 09:41:47;;;;;;;;;;;;;;;;;;5014791;28;20355;-24
2024/01/21 09:44:13;;;;;;;;;;;;;;;;;;5014667;28;20288;-26
2024/01/21 09:46:39;;;;;;;;;;;;;;;;;;5015079;28;20063;-26
2024/01/21 09:49:05;;;;;;;;;;;;;;;;;;5014706;28;19968;-30
2024/01/21 09:51:31;;;;;;;;;;;;;;;;;;5015703;28;19960;-25
2024/01/21 09:53:57;;;;;;;;;;;;;;;;;;5018692;28;19910;-29
2024/01/21 09:56:23;;;;;;;;;;;;;;;;;;5017695;28;19910;-27
2024/01/21 09:58:49;;;;;;;;;;;;;;;;;;5018627;28;20345;-26
2024/01/21 10:01:15;;;;;;;;;;;;;;;;;;5018891;28;19916;-24
2024/01/21 10:03:41;;;;;;;;;;;;;;;;;;5017078;28;19921;-28
2024/01/21 10:06:07;;;;;;;;;;;;;;;;;;5018563;28;19914;-24
2024/01/21 10:08:33;;;;;;;;;;;;;;;;;;5018655;28;19974;-25
2024/01/21 10:11:02;;;;;;;;;;;;;;;;;;5018402;28;19991;-24
2024/01/21 10:13:29;;;;;;;;;;;;;;;;;;5018523;28;19913;-27
2024/01/21 10:15:55;;;;;;;;;;;;;;;;;;5018338;28;20257;-25
2024/01/21 10:18:21;;;;;;;;;;;;;;;;;;5018494;28;19916;-26
2024/01/21 10:20:47;;;;;;;;;;;;;;;;;;5018242;28;19910;-27
2024/01/21 10:23:13;;;;;;;;;;;;;;;;;;5018109;28;19952;-31
2024/01/21 10:25:40;;;;;;;;;;;;;;;;;;5018200;28;20349;-24
2024/01/21 10:28:06;;;;;;;;;;;;;;;;;;5018435;28;20293;-23
2024/01/21 10:30:32;;;;;;;;;;;;;;;;;;5018347;28;19968;-25
2024/01/21 10:32:58;;;;;;;;;;;;;;;;;;5018205;28;20355;-24
2024/01/21 10:35:24;;;;;;;;;;;;;;;;;;5017998;28;19909;-23
2024/01/21 10:37:49;;;;;;;;;;;;;;;;;;5018220;28;20004;-27
2024/01/21 10:40:16;;;;;;;;;;;;;;;;;;5017873;28;19917;-25
2024/01/21 10:42:42;;;;;;;;;;;;;;;;;;5017695;28;19960;-30
2024/01/21 10:45:08;;;;;;;;;;;;;;;;;;5017844;28;19953;-25
2024/01/21 10:47:34;;;;;;;;;;;;;;;;;;5018085;28;19964;-27
2024/01/21 10:50:00;;;;;;;;;;;;;;;;;;5017680;28;19941;-26
2024/01/21 10:52:26;;;;;;;;;;;;;;;;;;5017539;28;19976;-27
2024/01/21 10:54:52;;;;;;;;;;;;;;;;;;5017579;28;19945;-24
2024/01/21 10:57:18;;;;;;;;;;;;;;;;;;5017574;28;19914;-25
2024/01/21 10:59:44;;;;;;;;;;;;;;;;;;5017784;28;19945;-29
2024/01/21 11:02:10;;;;;;;;;;;;;;;;;;5017391;28;19910;-23
2024/01/21 11:04:36;;;;;;;;;;;;;;;;;;5016543;28;19922;-25
2024/01/21 11:07:02;;;;;;;;;;;;;;;;;;5017969;28;19948;-23
2024/01/21 11:09:30;;;;;;;;;;;;;;;;;;5017453;28;19921;-29
2024/01/21 11:11:56;;;;;;;;;;;;;;;;;;5017356;28;19920;-23
2024/01/21 11:14:22;;;;;;;;;;;;;;;;;;5017325;28;19909;-28
2024/01/21 11:16:48;;;;;;;;;;;;;;;;;;5016331;28;20001;-24
2024/01/21 11:19:16;;;;;;;;;;;;;;;;;;5017161;28;19910;-26
2024/01/21 11:21:43;;;;;;;;;;;;;;;;;;5017436;28;19913;-27
2024/01/21 11:24:09;;;;;;;;;;;;;;;;;;5016951;28;20317;-28
2024/01/21 11:26:35;;;;;;;;;;;;;;;;;;5017062;28;19910;-29
2024/01/21 11:29:01;;;;;;;;;;;;;;;;;;5015930;28;20333;-29
2024/01/21 11:31:28;;;;;;;;;;;;;;;;;;5016855;28;19909;-28
2024/01/21 11:33:54;;;;;;;;;;;;;;;;;;5016715;28;19949;-24
2024/01/21 11:36:20;;;;;;;;;;;;;;;;;;5016788;28;19977;-24
2024/01/21 11:38:46;;;;;;;;;;;;;;;;;;5017039;28;19984;-28
2024/01/21 11:41:12;;;;;;;;;;;;;;;;;;5016709;28;19964;-29
2024/01/21 11:43:38;;;;;;;;;;;;;;;;;;5016513;28;19924;-25
2024/01/21 11:46:04;;;;;;;;;;;;;;;;;;5016640;28;19910;-25
2024/01/21 11:48:30;;;;;;;;;;;;;;;;;;5016897;28;19909;-28
2024/01/21 11:50:56;;;;;;;;;;;;;;;;;;5016607;28;20325;-29
2024/01/21 11:53:22;;;;;;;;;;;;;;;;;;5016449;28;19910;-27
2024/01/21 11:55:48;;;;;;;;;;;;;;;;;;5017243;28;19920;-29
2024/01/21 11:58:13;;;;;;;;;;;;;;;;;;5015403;28;19920;-26
2024/01/21 12:00:39;;;;;;;;;;;;;;;;;;5016274;28;20359;-27
2024/01/21 12:03:05;;;;;;;;;;;;;;;;;;5015990;28;20403;-29
2024/01/21 12:05:32;;;;;;;;;;;;;;;;;;5016154;28;19910;-26
2024/01/21 12:07:58;;;;;;;;;;;;;;;;;;5016131;28;19917;-28
2024/01/21 12:10:24;;;;;;;;;;;;;;;;;;5016036;28;19914;-27
2024/01/21 12:12:50;;;;;;;;;;;;;;;;;;5016277;28;19920;-26
2024/01/21 12:15:16;;;;;;;;;;;;;;;;;;5014949;28;19977;-26
2024/01/21 12:17:42;;;;;;;;;;;;;;;;;;5016123;28;20341;-28
2024/01/21 12:20:08;;;;;;;;;;;;;;;;;;5016199;28;19909;-23
2024/01/21 12:22:34;;;;;;;;;;;;;;;;;;5016735;28;19917;-31
2024/01/21 12:25:00;;;;;;;;;;;;;;;;;;5015958;28;19909;-24
2024/01/21 12:27:25;;;;;;;;;;;;;;;;;;5015942;28;19921;-26
2024/01/21 12:29:51;;;;;;;;;;;;;;;;;;5016100;28;19910;-24
2024/01/21 12:32:17;;;;;;;;;;;;;;;;;;5015699;28;19929;-26
2024/01/21 12:34:43;;;;;;;;;;;;;;;;;;5015688;28;19909;-33
2024/01/21 12:37:12;;;;;;;;;;;;;;;;;;5015629;28;20012;-25
2024/01/21 12:39:38;;;;;;;;;;;;;;;;;;5015554;28;19937;-29
2024/01/21 12:42:04;;;;;;;;;;;;;;;;;;5015502;28;19975;-27
2024/01/21 12:44:30;;;;;;;;;;;;;;;;;;5015471;28;19914;-26
2024/01/21 12:46:56;;;;;;;;;;;;;;;;;;5015492;28;19924;-24
2024/01/21 12:49:22;;;;;;;;;;;;;;;;;;5015419;28;19909;-23
2024/01/21 12:51:48;;;;;;;;;;;;;;;;;;5015476;28;19920;-27
2024/01/21 12:54:14;;;;;;;;;;;;;;;;;;5015303;28;19909;-24
2024/01/21 12:56:40;;;;;;;;;;;;;;;;;;5015383;28;19924;-24
2024/01/21 12:59:06;;;;;;;;;;;;;;;;;;5015324;28;19964;-26
2024/01/21 13:01:32;;;;;;;;;;;;;;;;;;5015603;28;19909;-27
2024/01/21 13:03:58;;;;;;;;;;;;;;;;;;5014899;28;20245;-26
2024/01/21 13:06:24;;;;;;;;;;;;;;;;;;5015246;28;19910;-27
2024/01/21 13:08:50;;;;;;;;;;;;;;;;;;5015183;28;19953;-31
2024/01/21 13:11:16;;;;;;;;;;;;;;;;;;5015375;28;19909;-26
2024/01/21 13:13:42;;;;;;;;;;;;;;;;;;5015252;28;19968;-26
2024/01/21 13:16:09;;;;;;;;;;;;;;;;;;5015328;28;20252;-29
2024/01/21 13:18:37;;;;;;;;;;;;;;;;;;5014967;28;19917;-29
2024/01/21 13:21:03;;;;;;;;;;;;;;;;;;5015310;28;19909;-30
2024/01/21 13:23:29;;;;;;;;;;;;;;;;;;5014813;28;19917;-26
2024/01/21 13:25:55;;;;;;;;;;;;;;;;;;5014712;28;19949;-29
2024/01/21 13:30:47;;;;;;;;;;;;;;;;;;5015449;28;20008;-24
2024/01/21 13:33:13;;;;;;;;;;;;;;;;;;5014818;28;19914;-28
2024/01/21 13:35:39;;;;;;;;;;;;;;;;;;5014823;28;19910;-27
2024/01/21 13:38:06;;;;;;;;;;;;;;;;;;5014890;28;19964;-28
2024/01/21 13:40:32;;;;;;;;;;;;;;;;;;5015108;28;20211;-25
2024/01/21 13:42:58;;;;;;;;;;;;;;;;;;5014631;28;19995;-26
2024/01/21 13:45:24;;;;;;;;;;;;;;;;;;5014888;28;19910;-28
2024/01/21 13:47:50;;;;;;;;;;;;;;;;;;5014684;28;19909;-31
2024/01/21 13:50:16;;;;;;;;;;;;;;;;;;5014714;28;19913;-26
2024/01/21 13:52:42;;;;;;;;;;;;;;;;;;5014528;28;19910;-25
2024/01/21 13:55:08;;;;;;;;;;;;;;;;;;5014845;28;19920;-26
2024/01/21 13:57:34;;;;;;;;;;;;;;;;;;5014595;28;20011;-29
2024/01/21 14:00:00;;;;;;;;;;;;;;;;;;5014570;28;19976;-27
2024/01/21 14:02:26;;;;;;;;;;;;;;;;;;5014225;28;19916;-25
2024/01/21 14:04:52;;;;;;;;;;;;;;;;;;5014899;28;19924;-27
2024/01/21 14:07:18;;;;;;;;;;;;;;;;;;5014469;28;19914;-29
2024/01/21 14:09:44;;;;;;;;;;;;;;;;;;5014453;28;19919;-26
2024/01/21 14:12:11;;;;;;;;;;;;;;;;;;5014680;28;19910;-26
2024/01/21 14:14:37;;;;;;;;;;;;;;;;;;5014419;28;20007;-26
2024/01/21 14:17:03;;;;;;;;;;;;;;;;;;5014460;28;19952;-24
2024/01/21 14:19:29;;;;;;;;;;;;;;;;;;5014713;28;20261;-27
2024/01/21 14:21:55;;;;;;;;;;;;;;;;;;5014594;28;19924;-27
2024/01/21 14:24:21;;;;;;;;;;;;;;;;;;5014512;28;19913;-28
2024/01/21 14:26:47;;;;;;;;;;;;;;;;;;5014332;28;20376;-26
2024/01/21 14:29:14;;;;;;;;;;;;;;;;;;5014237;28;19949;-32
2024/01/21 14:31:40;;;;;;;;;;;;;;;;;;5014485;28;19981;-31
2024/01/21 14:34:11;;;;;;;;;;;;;;;;;;5014265;28;19996;-26
2024/01/21 14:36:37;;;;;;;;;;;;;;;;;;5014515;28;19920;-27
2024/01/21 14:39:03;;;;;;;;;;;;;;;;;;5015966;28;20333;-31
2024/01/21 14:41:29;;;;;;;;;;;;;;;;;;5018086;28;20345;-31
2024/01/21 14:43:55;;;;;;;;;;;;;;;;;;5017714;28;19968;-25
2024/01/21 14:46:21;;;;;;;;;;;;;;;;;;5018049;28;19916;-27
2024/01/21 14:48:47;;;;;;;;;;;;;;;;;;5017800;28;19917;-26
2024/01/21 14:51:13;;;;;;;;;;;;;;;;;;5017681;28;19909;-28
2024/01/21 14:53:39;;;;;;;;;;;;;;;;;;5017572;28;19920;-27
2024/01/21 14:56:05;;;;;;;;;;;;;;;;;;5017863;28;19909;-24
2024/01/21 14:58:30;;;;;;;;;;;;;;;;;;5017586;28;20008;-28
2024/01/21 15:00:56;;;;;;;;;;;;;;;;;;5018030;28;19916;-28
2024/01/21 15:03:22;;;;;;;;;;;;;;;;;;5017176;28;19964;-31
2024/01/21 15:05:48;;;;;;;;;;;;;;;;;;5017694;28;19913;-28
2024/01/21 15:08:14;;;;;;;;;;;;;;;;;;5017681;28;19917;-31
2024/01/21 15:10:42;;;;;;;;;;;;;;;;;;5016308;28;19921;-34
2024/01/21 15:13:08;;;;;;;;;;;;;;;;;;5017258;28;19924;-30
2024/01/21 15:15:35;;;;;;;;;;;;;;;;;;5017284;28;19909;-24
2024/01/21 15:18:01;;;;;;;;;;;;;;;;;;5017239;28;19909;-25
2024/01/21 15:20:27;;;;;;;;;;;;;;;;;;5017160;28;19919;-27
2024/01/21 15:22:53;;;;;;;;;;;;;;;;;;5017029;28;19913;-34
2024/01/21 15:25:19;;;;;;;;;;;;;;;;;;5017138;28;20309;-25
2024/01/21 15:27:45;;;;;;;;;;;;;;;;;;5017363;28;19910;-25
2024/01/21 15:30:11;;;;;;;;;;;;;;;;;;5017002;28;19917;-26
2024/01/21 15:32:37;;;;;;;;;;;;;;;;;;5016797;28;20003;-28
2024/01/21 15:35:04;;;;;;;;;;;;;;;;;;5016880;28;19921;-25
2024/01/21 15:37:30;;;;;;;;;;;;;;;;;;5017171;28;20039;-32
2024/01/21 15:39:57;;;;;;;;;;;;;;;;;;5016773;28;20301;-27
2024/01/21 15:42:23;;;;;;;;;;;;;;;;;;5016490;28;19978;-24
2024/01/21 15:44:49;;;;;;;;;;;;;;;;;;5016890;28;20000;-29
2024/01/21 15:47:15;;;;;;;;;;;;;;;;;;5016617;28;20380;-30
2024/01/21 15:49:41;;;;;;;;;;;;;;;;;;5016247;28;20275;-28
2024/01/21 15:52:07;;;;;;;;;;;;;;;;;;5016697;28;19909;-28
2024/01/21 15:54:33;;;;;;;;;;;;;;;;;;5016693;28;20230;-26
2024/01/21 15:56:59;;;;;;;;;;;;;;;;;;5016646;28;20130;-25
2024/01/21 15:59:25;;;;;;;;;;;;;;;;;;5016361;28;20393;-24
2024/01/21 16:01:51;;;;;;;;;;;;;;;;;;5016266;28;19910;-29
2024/01/21 16:04:17;;;;;;;;;;;;;;;;;;5016005;28;20068;-26
2024/01/21 16:06:43;;;;;;;;;;;;;;;;;;5016278;28;20324;-26
2024/01/21 16:09:09;;;;;;;;;;;;;;;;;;5016182;28;19969;-24
2024/01/21 16:11:35;;;;;;;;;;;;;;;;;;5016109;28;19929;-30
2024/01/21 16:14:01;;;;;;;;;;;;;;;;;;5016051;28;19972;-24
2024/01/21 16:16:27;;;;;;;;;;;;;;;;;;5016011;28;19913;-24
2024/01/21 16:18:53;;;;;;;;;;;;;;;;;;5016305;28;20337;-25
2024/01/21 16:21:19;;;;;;;;;;;;;;;;;;5016048;28;20380;-28
2024/01/21 16:23:45;;;;;;;;;;;;;;;;;;5014891;28;19991;-25
2024/01/21 16:26:11;;;;;;;;;;;;;;;;;;5016119;28;19913;-23
2024/01/21 16:28:37;;;;;;;;;;;;;;;;;;5016043;28;19909;-24
2024/01/21 16:31:03;;;;;;;;;;;;;;;;;;5015763;28;19909;-25
2024/01/21 16:33:29;;;;;;;;;;;;;;;;;;5015681;28;19964;-26
2024/01/21 16:35:55;;;;;;;;;;;;;;;;;;5016043;28;20341;-29
2024/01/21 16:38:21;;;;;;;;;;;;;;;;;;5015943;28;19968;-25
2024/01/21 16:40:47;;;;;;;;;;;;;;;;;;5015652;28;19913;-25